Time;durP1;ratioP1;P1;durP2;ratioP2;P2;SDS_P1;SDS_P2;PMS_P1;PMS_P2;Temp;Humidity;BMP_temperature;BMP_pressure;BME280_temperature;BME280_humidity;BME280_pressure;Samples;Min_cycle;Max_cycle;Signal;HPM_P1;HPM_P2
2024/04/01 00:01:24;;;;;;;35.17;21.27;;;11.60;99.90;;;;;;5052769;28;20175;-52
2024/04/01 00:03:50;;;;;;;34.10;23.43;;;11.50;99.90;;;;;;5051411;28;20187;-56
2024/04/01 00:06:15;;;;;;;34.27;22.13;;;11.50;99.90;;;;;;5051484;28;20182;-55
2024/04/01 00:08:41;;;;;;;27.40;22.00;;;11.50;99.90;;;;;;5054410;28;20685;-56
2024/04/01 00:11:06;;;;;;;33.20;22.43;;;11.50;99.90;;;;;;5055365;28;20183;-53
2024/04/01 00:13:32;;;;;;;34.77;23.47;;;11.40;99.90;;;;;;5054622;28;20171;-56
2024/04/01 00:15:58;;;;;;;35.20;23.23;;;11.40;99.90;;;;;;5055000;28;20612;-53
2024/04/01 00:18:23;;;;;;;34.53;26.40;;;11.40;99.90;;;;;;5054493;28;20842;-53
2024/04/01 00:20:59;;;;;;;39.50;22.13;;;11.30;99.90;;;;;;5053089;28;20274;-58
2024/04/01 00:23:25;;;;;;;40.17;23.17;;;11.30;99.90;;;;;;5054799;28;20185;-54
2024/04/01 00:25:50;;;;;;;40.70;25.10;;;11.30;99.90;;;;;;5054809;28;20510;-55
2024/04/01 00:28:16;;;;;;;41.27;24.40;;;11.20;99.90;;;;;;5054335;28;20897;-57
2024/04/01 00:30:42;;;;;;;34.63;23.53;;;11.20;99.90;;;;;;5054488;28;20171;-54
2024/04/01 00:33:09;;;;;;;36.37;23.10;;;11.20;99.90;;;;;;5054312;28;20179;-53
2024/04/01 00:35:41;;;;;;;34.10;22.03;;;11.10;99.90;;;;;;5054399;28;20183;-56
2024/04/01 00:38:07;;;;;;;46.37;25.43;;;11.10;99.90;;;;;;5054533;28;20510;-53
2024/04/01 00:40:36;;;;;;;36.87;24.50;;;11.10;99.90;;;;;;5054738;28;20422;-52
2024/04/01 00:43:08;;;;;;;39.30;23.07;;;11.00;99.90;;;;;;5054346;28;20425;-53
2024/04/01 00:45:40;;;;;;;33.63;21.80;;;11.00;99.90;;;;;;5054114;28;20417;-55
2024/04/01 00:48:08;;;;;;;33.83;24.23;;;11.00;99.90;;;;;;5054129;28;20472;-56
2024/04/01 00:50:35;;;;;;;33.60;24.33;;;11.00;99.90;;;;;;5054175;28;20802;-54
2024/04/01 00:53:03;;;;;;;39.30;23.03;;;10.90;99.90;;;;;;5053572;28;20421;-55
2024/04/01 00:55:30;;;;;;;29.83;25.20;;;10.90;99.90;;;;;;5054103;28;20424;-55
2024/04/01 00:57:58;;;;;;;35.23;22.23;;;10.90;99.90;;;;;;5053984;28;20452;-52
2024/04/01 01:00:24;;;;;;;35.40;23.80;;;10.90;99.90;;;;;;5053658;28;20911;-54
2024/04/01 01:02:50;;;;;;;40.60;21.23;;;10.90;99.90;;;;;;5054651;28;20432;-50
2024/04/01 01:05:16;;;;;;;34.80;22.60;;;10.80;99.90;;;;;;5054191;28;20417;-53
2024/04/01 01:07:43;;;;;;;40.73;23.20;;;10.80;99.90;;;;;;5053896;28;20308;-55
2024/04/01 01:10:10;;;;;;;31.77;21.87;;;10.80;99.90;;;;;;5053863;28;20860;-55
2024/04/01 01:12:37;;;;;;;28.60;20.23;;;10.80;99.90;;;;;;5053341;28;20901;-50
2024/04/01 01:15:04;;;;;;;44.93;22.67;;;10.80;99.90;;;;;;5056063;28;20491;-56
2024/04/01 01:17:31;;;;;;;37.40;23.00;;;10.80;99.90;;;;;;5053650;28;20467;-52
2024/04/01 01:19:57;;;;;;;46.50;22.57;;;10.70;99.90;;;;;;5054030;28;20429;-52
2024/04/01 01:22:35;;;;;;;29.27;21.53;;;10.80;99.90;;;;;;5054082;28;20958;-52
2024/04/01 01:25:06;;;;;;;40.43;23.03;;;10.80;99.90;;;;;;5047549;28;20217;-55
2024/04/01 01:27:36;;;;;;;35.97;21.50;;;10.70;99.90;;;;;;5053278;28;20472;-53
2024/04/01 01:30:03;;;;;;;29.30;21.70;;;10.70;99.90;;;;;;5053385;28;20409;-56
2024/04/01 01:32:30;;;;;;;37.37;21.20;;;10.70;99.90;;;;;;5036924;28;20434;-55
2024/04/01 01:34:55;;;;;;;23.43;20.50;;;10.70;99.90;;;;;;5032372;28;20459;-57
2024/04/01 01:37:22;;;;;;;28.87;21.37;;;10.60;99.90;;;;;;5053214;28;20959;-53
2024/04/01 01:39:47;;;;;;;30.53;22.57;;;10.60;99.90;;;;;;5053159;28;20187;-53
2024/04/01 01:42:13;;;;;;;35.47;22.00;;;10.60;99.90;;;;;;5053312;28;20421;-52
2024/04/01 01:44:38;;;;;;;39.87;21.57;;;10.60;99.90;;;;;;5053178;28;20194;-54
2024/04/01 01:47:04;;;;;;;33.20;22.07;;;10.60;99.90;;;;;;5057728;28;20199;-57
2024/04/01 01:49:30;;;;;;;42.93;19.70;;;10.60;99.90;;;;;;5053349;28;20179;-56
2024/04/01 01:51:56;;;;;;;43.37;20.23;;;10.60;99.90;;;;;;5052772;28;20409;-55
2024/04/01 01:54:21;;;;;;;35.13;23.70;;;10.50;99.90;;;;;;5051931;28;20189;-53
2024/04/01 01:56:47;;;;;;;31.03;20.90;;;10.50;99.90;;;;;;5050576;28;20182;-51
2024/04/01 01:59:12;;;;;;;36.83;20.30;;;10.50;99.90;;;;;;5052334;28;20289;-55
2024/04/01 02:01:38;;;;;;;46.17;22.17;;;10.50;99.90;;;;;;5052303;28;20175;-54
2024/04/01 02:04:04;;;;;;;35.63;23.83;;;10.50;99.90;;;;;;5051302;28;20684;-52
2024/04/01 02:06:29;;;;;;;48.03;21.07;;;10.50;99.90;;;;;;5054364;28;20577;-54
2024/04/01 02:08:55;;;;;;;30.50;20.60;;;10.40;99.90;;;;;;5052018;28;20207;-56
2024/04/01 02:11:21;;;;;;;40.87;21.83;;;10.40;99.90;;;;;;5052144;28;20708;-57
2024/04/01 02:13:47;;;;;;;33.40;21.50;;;10.40;99.90;;;;;;5051346;28;20589;-54
2024/04/01 02:16:12;;;;;;;31.73;18.90;;;10.40;99.90;;;;;;5049925;28;20433;-54
2024/04/01 02:18:38;;;;;;;37.33;21.93;;;10.40;99.90;;;;;;5051605;28;20441;-56
2024/04/01 02:21:04;;;;;;;38.47;20.00;;;10.40;99.90;;;;;;5052730;28;20195;-52
2024/04/01 02:23:33;;;;;;;42.43;20.10;;;10.40;99.90;;;;;;5051642;28;20652;-54
2024/04/01 02:26:02;;;;;;;38.20;21.40;;;10.40;99.90;;;;;;5052700;28;20433;-56
2024/04/01 02:28:31;;;;;;;26.80;20.13;;;10.40;99.90;;;;;;5052026;28;20461;-56
2024/04/01 02:30:58;;;;;;;30.40;20.30;;;10.30;99.90;;;;;;5052339;28;20907;-52
2024/04/01 02:33:24;;;;;;;33.13;19.53;;;10.40;99.90;;;;;;5052627;28;20428;-57
2024/04/01 02:35:50;;;;;;;29.40;19.30;;;10.40;99.90;;;;;;5052472;28;20417;-53
2024/04/01 02:38:17;;;;;;;35.73;21.40;;;10.40;99.90;;;;;;5052227;28;20203;-52
2024/04/01 02:40:42;;;;;;;38.50;20.83;;;10.30;99.90;;;;;;5052562;28;20855;-57
2024/04/01 02:43:08;;;;;;;39.43;21.33;;;10.30;99.90;;;;;;5052464;28;20436;-52
2024/04/01 02:45:34;;;;;;;32.40;21.27;;;10.30;99.90;;;;;;5052285;28;20199;-52
2024/04/01 02:47:59;;;;;;;33.87;20.80;;;10.30;99.90;;;;;;5051709;28;20217;-52
2024/04/01 02:50:25;;;;;;;29.80;21.77;;;10.30;99.90;;;;;;5052292;28;20179;-57
2024/04/01 02:52:50;;;;;;;28.67;20.93;;;10.30;99.90;;;;;;5052118;28;20524;-50
2024/04/01 02:55:18;;;;;;;29.13;20.80;;;10.20;99.90;;;;;;5051927;28;20220;-52
2024/04/01 02:57:44;;;;;;;29.77;21.10;;;10.30;99.90;;;;;;5051392;28;20273;-55
2024/04/01 03:00:17;;;;;;;33.60;18.53;;;10.20;99.90;;;;;;5051685;28;20983;-51
2024/04/01 03:02:46;;;;;;;35.93;20.47;;;10.20;99.90;;;;;;5051837;28;20182;-53
2024/04/01 03:05:15;;;;;;;31.17;20.07;;;10.20;99.90;;;;;;5051926;28;20432;-54
2024/04/01 03:07:42;;;;;;;29.90;21.43;;;10.20;99.90;;;;;;5049705;28;20468;-52
2024/04/01 03:10:11;;;;;;;37.40;20.37;;;10.20;99.90;;;;;;5051768;28;20422;-56
2024/04/01 03:12:43;;;;;;;32.67;20.00;;;10.10;99.90;;;;;;5052016;28;20409;-53
2024/04/01 03:15:10;;;;;;;27.87;20.20;;;10.20;99.90;;;;;;5051826;28;20470;-54
2024/04/01 03:17:36;;;;;;;37.73;21.17;;;10.20;99.90;;;;;;5051362;28;20444;-55
2024/04/01 03:20:02;;;;;;;35.10;22.47;;;10.10;99.90;;;;;;5051982;28;20794;-54
2024/04/01 03:22:28;;;;;;;34.20;21.27;;;10.10;99.90;;;;;;5051960;28;20657;-58
2024/04/01 03:24:54;;;;;;;28.90;18.70;;;10.10;99.90;;;;;;5051096;28;20904;-56
2024/04/01 03:27:22;;;;;;;35.90;22.13;;;10.10;99.90;;;;;;5051539;28;20457;-58
2024/04/01 03:29:48;;;;;;;26.03;20.17;;;10.00;99.90;;;;;;5051608;28;20425;-53
2024/04/01 03:32:14;;;;;;;31.80;19.40;;;10.00;99.90;;;;;;5051458;28;20417;-52
2024/04/01 03:34:39;;;;;;;37.07;19.20;;;10.00;99.90;;;;;;5051239;28;20496;-53
2024/04/01 03:37:06;;;;;;;27.00;19.00;;;9.90;99.90;;;;;;5051653;28;20190;-52
2024/04/01 03:39:31;;;;;;;33.73;19.90;;;10.00;99.90;;;;;;5051309;28;20457;-52
2024/04/01 03:41:57;;;;;;;30.10;20.33;;;10.00;99.90;;;;;;5051522;28;20457;-51
2024/04/01 03:44:24;;;;;;;34.83;19.10;;;10.00;99.90;;;;;;5051068;28;20187;-54
2024/04/01 03:46:50;;;;;;;37.10;20.50;;;9.90;99.90;;;;;;5050464;28;20428;-56
2024/04/01 03:49:16;;;;;;;34.73;19.90;;;9.90;99.90;;;;;;5050893;28;20939;-53
2024/04/01 03:51:42;;;;;;;34.67;19.50;;;9.80;99.90;;;;;;5050909;28;20549;-57
2024/04/01 03:54:08;;;;;;;28.20;19.20;;;9.80;99.90;;;;;;5050872;28;20418;-56
2024/04/01 03:56:33;;;;;;;32.23;20.07;;;9.70;99.90;;;;;;5050810;28;20190;-52
2024/04/01 03:58:59;;;;;;;30.67;20.17;;;9.70;99.90;;;;;;5050617;28;20599;-58
2024/04/01 04:01:24;;;;;;;27.80;18.93;;;9.70;99.90;;;;;;5050718;28;20550;-55
2024/04/01 04:03:50;;;;;;;27.17;19.27;;;9.70;99.90;;;;;;5050439;28;20239;-55
2024/04/01 04:06:15;;;;;;;26.30;19.40;;;9.70;99.90;;;;;;5051147;28;20187;-52
2024/04/01 04:08:47;;;;;;;35.17;20.60;;;9.70;99.90;;;;;;5050727;28;20214;-56
2024/04/01 04:11:12;;;;;;;30.87;21.13;;;9.60;99.90;;;;;;5049562;28;20660;-59
2024/04/01 04:13:38;;;;;;;30.67;19.77;;;9.60;99.90;;;;;;5050956;28;20421;-56
2024/04/01 04:16:04;;;;;;;36.87;20.03;;;9.60;99.90;;;;;;5050822;28;20428;-52
2024/04/01 04:18:30;;;;;;;41.33;20.43;;;9.60;99.90;;;;;;5050716;28;20206;-52
2024/04/01 04:20:55;;;;;;;37.60;20.53;;;9.70;99.90;;;;;;5049859;28;20194;-50
2024/04/01 04:23:23;;;;;;;36.03;20.17;;;9.70;99.90;;;;;;5050693;28;20723;-56
2024/04/01 04:25:48;;;;;;;30.73;20.93;;;9.70;99.90;;;;;;5050284;28;20190;-54
2024/04/01 04:28:14;;;;;;;34.23;18.60;;;9.70;99.90;;;;;;5050590;28;21058;-54
2024/04/01 04:30:39;;;;;;;41.30;18.77;;;9.70;99.90;;;;;;5050277;28;20233;-53
2024/04/01 04:33:05;;;;;;;28.90;19.67;;;9.80;99.90;;;;;;5050548;28;20233;-56
2024/04/01 04:35:31;;;;;;;38.17;20.10;;;9.80;99.90;;;;;;5050716;28;20633;-56
2024/04/01 04:37:56;;;;;;;30.40;18.43;;;10.00;99.90;;;;;;5050707;28;20209;-53
2024/04/01 04:40:24;;;;;;;31.70;18.93;;;10.10;99.90;;;;;;5050795;28;20487;-53
2024/04/01 04:42:50;;;;;;;31.63;19.20;;;10.10;99.90;;;;;;5051117;28;20178;-54
2024/04/01 04:45:17;;;;;;;32.50;18.90;;;10.20;99.90;;;;;;5050618;28;20432;-56
2024/04/01 04:47:43;;;;;;;26.53;17.97;;;10.30;99.90;;;;;;5051913;28;20464;-52
2024/04/01 04:50:08;;;;;;;27.90;18.63;;;10.30;99.90;;;;;;5051077;28;20494;-52
2024/04/01 04:52:34;;;;;;;32.63;19.37;;;10.30;99.90;;;;;;5052795;28;20636;-56
2024/04/01 04:54:59;;;;;;;30.77;19.40;;;10.40;99.90;;;;;;5053687;28;20190;-52
2024/04/01 04:57:26;;;;;;;40.27;19.30;;;10.40;99.90;;;;;;5053319;28;20199;-53
2024/04/01 04:59:51;;;;;;;41.53;20.00;;;10.50;99.90;;;;;;5053995;28;20320;-57
2024/04/01 05:02:17;;;;;;;42.63;21.57;;;10.50;99.90;;;;;;5053689;28;20528;-54
2024/04/01 05:04:43;;;;;;;26.97;18.17;;;10.60;99.90;;;;;;5053466;28;20183;-52
2024/04/01 05:07:09;;;;;;;39.77;20.73;;;10.60;99.90;;;;;;5053918;28;20230;-54
2024/04/01 05:09:35;;;;;;;29.10;18.00;;;10.60;99.90;;;;;;5053549;28;20440;-62
2024/04/01 05:12:03;;;;;;;37.57;18.73;;;10.70;99.90;;;;;;5047448;28;20431;-54
2024/04/01 05:14:29;;;;;;;40.27;18.97;;;10.70;99.90;;;;;;5054033;28;20210;-53
2024/04/01 05:16:55;;;;;;;32.00;18.67;;;10.70;99.90;;;;;;5053050;28;20459;-54
2024/04/01 05:19:21;;;;;;;34.10;18.57;;;10.70;99.90;;;;;;5053903;28;20434;-57
2024/04/01 05:21:47;;;;;;;49.17;16.97;;;10.80;99.90;;;;;;5051238;28;20237;-52
2024/04/01 05:24:12;;;;;;;37.80;18.30;;;10.90;99.90;;;;;;5052406;28;20457;-54
2024/04/01 05:26:38;;;;;;;33.50;19.00;;;11.00;99.90;;;;;;5053158;28;20528;-51
2024/04/01 05:29:04;;;;;;;32.23;18.70;;;11.10;99.90;;;;;;5053490;28;20773;-53
2024/04/01 05:31:29;;;;;;;35.90;16.60;;;11.20;99.90;;;;;;5053013;28;20224;-56
2024/04/01 05:33:57;;;;;;;37.93;17.43;;;11.20;99.90;;;;;;5053162;28;20668;-52
2024/04/01 05:36:25;;;;;;;31.83;17.30;;;11.30;99.90;;;;;;5053508;28;20422;-52
2024/04/01 05:38:51;;;;;;;30.73;15.57;;;11.40;99.90;;;;;;5052603;28;20583;-51
2024/04/01 05:41:17;;;;;;;27.10;15.60;;;11.40;99.90;;;;;;5052499;28;20520;-55
2024/04/01 05:43:42;;;;;;;33.60;16.80;;;11.50;99.90;;;;;;5053944;28;20428;-57
2024/04/01 05:46:08;;;;;;;35.03;15.97;;;11.50;99.90;;;;;;5054574;28;20201;-55
2024/04/01 05:48:33;;;;;;;37.57;16.60;;;11.60;99.90;;;;;;5053750;28;20207;-54
2024/04/01 05:50:59;;;;;;;31.27;15.43;;;11.60;99.90;;;;;;5052884;28;20563;-56
2024/04/01 05:53:25;;;;;;;35.57;14.73;;;11.70;99.90;;;;;;5053430;28;20178;-56
2024/04/01 05:55:51;;;;;;;30.43;16.17;;;11.80;99.90;;;;;;5053067;28;20645;-58
2024/04/01 05:58:16;;;;;;;28.50;17.67;;;11.90;99.90;;;;;;5053148;28;20625;-54
2024/04/01 06:00:42;;;;;;;35.83;16.73;;;11.90;99.90;;;;;;5053029;28;20795;-50
2024/04/01 06:03:08;;;;;;;29.07;14.50;;;11.90;99.90;;;;;;5053355;28;20209;-54
2024/04/01 06:05:33;;;;;;;32.00;14.43;;;12.00;99.90;;;;;;5053093;28;20225;-55
2024/04/01 06:07:59;;;;;;;32.70;15.60;;;12.30;99.90;;;;;;5052485;28;20722;-58
2024/04/01 06:10:26;;;;;;;29.63;14.37;;;12.60;99.90;;;;;;5053103;28;20198;-60
2024/04/01 06:12:55;;;;;;;33.30;15.17;;;13.00;99.90;;;;;;5052817;28;20646;-54
2024/04/01 06:15:22;;;;;;;35.30;13.57;;;13.30;99.90;;;;;;5052940;28;20430;-53
2024/04/01 06:17:48;;;;;;;31.60;13.60;;;13.60;99.90;;;;;;5052425;28;20434;-52
2024/04/01 06:20:14;;;;;;;29.83;15.00;;;13.70;99.90;;;;;;5052724;28;20891;-56
2024/04/01 06:22:39;;;;;;;30.20;15.60;;;13.60;99.90;;;;;;5052691;28;20425;-54
2024/04/01 06:25:06;;;;;;;30.97;13.37;;;13.50;99.90;;;;;;5048933;28;20183;-54
2024/04/01 06:27:32;;;;;;;28.70;12.57;;;13.40;99.90;;;;;;5052356;28;20345;-54
2024/04/01 06:29:58;;;;;;;32.13;15.03;;;13.20;99.90;;;;;;5052388;28;20453;-54
2024/04/01 06:32:23;;;;;;;37.90;14.17;;;13.10;99.90;;;;;;5052364;28;20413;-57
2024/04/01 06:34:50;;;;;;;36.47;11.77;;;13.10;99.90;;;;;;5052235;28;20240;-51
2024/04/01 06:37:16;;;;;;;34.77;14.67;;;13.10;99.90;;;;;;5052388;28;20194;-53
2024/04/01 06:39:41;;;;;;;28.27;13.37;;;12.90;99.90;;;;;;5052325;28;20966;-57
2024/04/01 06:42:07;;;;;;;30.13;12.67;;;12.90;99.90;;;;;;5052306;28;20183;-53
2024/04/01 06:44:33;;;;;;;42.87;14.90;;;12.90;99.90;;;;;;5052022;28;20270;-53
2024/04/01 06:46:58;;;;;;;35.23;14.87;;;13.00;99.90;;;;;;5051160;28;20320;-54
2024/04/01 06:49:24;;;;;;;35.87;12.90;;;13.10;99.90;;;;;;5051788;28;20199;-49
2024/04/01 06:51:50;;;;;;;37.10;17.30;;;13.10;99.90;;;;;;5051648;28;20634;-58
2024/04/01 06:54:15;;;;;;;32.33;13.83;;;13.20;99.90;;;;;;5052398;28;20175;-54
2024/04/01 06:56:41;;;;;;;30.73;12.90;;;13.40;99.90;;;;;;5051444;28;20225;-53
2024/04/01 06:59:06;;;;;;;33.00;13.30;;;13.40;99.90;;;;;;5051354;28;20208;-55
2024/04/01 07:01:32;;;;;;;35.83;13.10;;;13.50;99.90;;;;;;5051634;28;20337;-53
2024/04/01 07:03:58;;;;;;;39.37;12.30;;;13.60;99.90;;;;;;5051347;28;20183;-55
2024/04/01 07:06:23;;;;;;;33.27;13.50;;;13.60;99.90;;;;;;5051358;28;20189;-57
2024/04/01 07:08:49;;;;;;;31.83;10.80;;;13.50;99.90;;;;;;5050451;28;20215;-55
2024/04/01 07:11:14;;;;;;;24.80;13.10;;;13.60;99.90;;;;;;5045466;28;20176;-57
2024/04/01 07:13:40;;;;;;;49.17;13.40;;;13.60;99.90;;;;;;5051325;28;20203;-60
2024/04/01 07:16:06;;;;;;;28.17;12.10;;;13.70;99.90;;;;;;5051006;28;20630;-50
2024/04/01 07:18:35;;;;;;;33.50;12.67;;;13.80;99.90;;;;;;5051345;28;20198;-51
2024/04/01 07:21:03;;;;;;;37.20;11.50;;;13.90;99.90;;;;;;5050679;28;20209;-50
2024/04/01 07:23:28;;;;;;;40.97;11.93;;;14.10;99.90;;;;;;5051544;28;20472;-57
2024/04/01 07:25:54;;;;;;;40.03;12.90;;;14.20;99.90;;;;;;5051074;28;20874;-57
2024/04/01 07:28:19;;;;;;;33.63;11.23;;;14.30;99.90;;;;;;5051157;28;20214;-54
2024/04/01 07:30:45;;;;;;;24.90;10.40;;;14.40;99.90;;;;;;5050963;28;20271;-55
2024/04/01 07:33:10;;;;;;;36.77;13.27;;;14.40;99.90;;;;;;5050962;28;20287;-59
2024/04/01 07:35:36;;;;;;;44.10;12.20;;;14.50;99.90;;;;;;5050831;28;20183;-55
2024/04/01 07:38:02;;;;;;;28.23;11.10;;;14.60;99.90;;;;;;5050798;28;20678;-52
2024/04/01 07:40:27;;;;;;;32.00;12.97;;;14.70;99.90;;;;;;5051237;28;20225;-62
2024/04/01 07:42:53;;;;;;;32.00;11.00;;;14.70;99.90;;;;;;5051249;28;20215;-61
2024/04/01 07:45:18;;;;;;;25.90;11.80;;;14.70;99.90;;;;;;5051845;28;20620;-53
2024/04/01 07:47:44;;;;;;;42.17;13.83;;;14.60;99.90;;;;;;5050668;28;20208;-61
2024/04/01 07:50:10;;;;;;;40.47;15.90;;;14.60;99.90;;;;;;5028752;28;20220;-61
2024/04/01 07:52:36;;;;;;;46.23;16.90;;;14.60;99.90;;;;;;5051339;28;20232;-60
2024/04/01 07:55:02;;;;;;;48.37;22.00;;;14.80;99.90;;;;;;5050672;28;20235;-57
2024/04/01 07:57:30;;;;;;;38.60;13.17;;;14.90;99.90;;;;;;5050821;28;20466;-53
2024/04/01 07:59:59;;;;;;;27.23;11.60;;;15.00;99.90;;;;;;5050425;28;20456;-55
2024/04/01 08:02:25;;;;;;;36.20;12.00;;;14.90;99.90;;;;;;5044447;28;21135;-61
2024/04/01 08:04:51;;;;;;;49.77;12.70;;;14.90;99.90;;;;;;5050313;28;20414;-59
2024/04/01 08:07:17;;;;;;;32.57;11.20;;;14.80;99.90;;;;;;5050277;28;20461;-62
2024/04/01 08:09:43;;;;;;;27.00;11.10;;;15.00;99.90;;;;;;5050598;28;20474;-51
2024/04/01 08:12:09;;;;;;;29.70;11.77;;;15.10;99.90;;;;;;5050491;28;20273;-63
2024/04/01 08:14:35;;;;;;;23.43;10.20;;;15.10;99.90;;;;;;5050626;28;20192;-57
2024/04/01 08:17:00;;;;;;;31.83;12.70;;;15.20;99.90;;;;;;5049979;28;20851;-56
2024/04/01 08:19:28;;;;;;;26.93;10.77;;;15.40;99.90;;;;;;5050658;28;20441;-54
2024/04/01 08:21:54;;;;;;;32.60;9.63;;;15.60;99.90;;;;;;5051610;28;20189;-56
2024/04/01 08:24:19;;;;;;;33.57;9.87;;;15.60;99.90;;;;;;5054899;28;20801;-58
2024/04/01 08:26:45;;;;;;;28.43;11.17;;;15.90;99.90;;;;;;5054533;28;20177;-53
2024/04/01 08:29:13;;;;;;;33.63;11.93;;;15.90;99.90;;;;;;5054277;28;20202;-55
2024/04/01 08:31:38;;;;;;;47.10;12.10;;;16.10;99.90;;;;;;5054393;28;20183;-57
2024/04/01 08:34:04;;;;;;;28.80;11.47;;;16.20;99.90;;;;;;5054186;28;20424;-53
2024/04/01 08:36:30;;;;;;;26.23;9.27;;;16.00;99.90;;;;;;5054430;28;20184;-58
2024/04/01 08:38:55;;;;;;;25.83;10.23;;;16.00;99.90;;;;;;5054138;28;20255;-54
2024/04/01 08:41:30;;;;;;;32.73;9.10;;;16.10;99.90;;;;;;5054292;28;20634;-57
2024/04/01 08:44:12;;;;;;;22.10;9.13;;;16.10;99.90;;;;;;5054473;28;20260;-53
2024/04/01 08:46:42;;;;;;;22.27;8.17;;;16.20;99.90;;;;;;5054011;28;20415;-56
2024/04/01 08:49:12;;;;;;;26.20;9.07;;;16.30;99.90;;;;;;5053691;28;20591;-57
2024/04/01 08:51:39;;;;;;;32.57;10.60;;;16.40;99.90;;;;;;5054103;28;20425;-58
2024/04/01 08:54:11;;;;;;;26.97;9.43;;;16.70;99.90;;;;;;5053757;28;20417;-55
2024/04/01 08:56:39;;;;;;;41.03;9.03;;;16.90;99.90;;;;;;5053730;28;20425;-54
2024/04/01 08:59:06;;;;;;;22.97;8.60;;;17.10;99.90;;;;;;5052495;28;20544;-53
2024/04/01 09:01:31;;;;;;;25.93;9.53;;;17.30;99.90;;;;;;5053811;28;20424;-54
2024/04/01 09:03:57;;;;;;;27.53;11.17;;;17.50;99.90;;;;;;5053257;28;20505;-59
2024/04/01 09:06:23;;;;;;;26.83;7.97;;;17.30;99.90;;;;;;5053806;28;20186;-61
2024/04/01 09:08:51;;;;;;;31.57;9.60;;;17.30;99.90;;;;;;5053584;28;20698;-59
2024/04/01 09:11:18;;;;;;;24.60;8.97;;;17.30;99.90;;;;;;5052400;28;20694;-54
2024/04/01 09:13:46;;;;;;;25.20;8.83;;;17.30;99.90;;;;;;5053856;28;20505;-61
2024/04/01 09:16:12;;;;;;;20.63;7.13;;;17.30;99.90;;;;;;5053520;28;20436;-59
2024/04/01 09:18:38;;;;;;;18.73;7.33;;;17.50;99.90;;;;;;5053590;28;20445;-56
2024/04/01 09:21:06;;;;;;;24.23;8.33;;;17.90;99.90;;;;;;5053588;28;20924;-53
2024/04/01 09:23:51;;;;;;;19.27;7.40;;;18.40;99.90;;;;;;5053994;28;20833;-57
2024/04/01 09:26:17;;;;;;;26.37;7.23;;;18.40;99.90;;;;;;5052916;28;20448;-60
2024/04/01 09:28:43;;;;;;;26.60;9.30;;;18.60;99.90;;;;;;5053624;28;20492;-59
2024/04/01 09:31:09;;;;;;;17.73;7.60;;;18.60;99.90;;;;;;5053406;28;20177;-51
2024/04/01 09:33:35;;;;;;;15.97;5.60;;;18.70;99.90;;;;;;5053063;28;20179;-52
2024/04/01 09:36:02;;;;;;;15.43;6.10;;;18.40;99.90;;;;;;5052358;28;20503;-52
2024/04/01 09:38:28;;;;;;;18.60;6.87;;;18.20;99.90;;;;;;5048193;28;20443;-55
2024/04/01 09:40:57;;;;;;;56.37;29.40;;;18.20;99.90;;;;;;5046653;28;20518;-64
2024/04/01 09:43:25;;;;;;;110.13;66.83;;;18.20;99.90;;;;;;5047929;28;20415;-59
2024/04/01 09:45:52;;;;;;;56.63;33.73;;;18.60;99.90;;;;;;5052526;28;20792;-59
2024/04/01 09:48:25;;;;;;;25.20;9.50;;;18.60;99.90;;;;;;5051832;28;20475;-58
2024/04/01 09:50:58;;;;;;;29.70;15.20;;;18.60;99.90;;;;;;5052119;28;20436;-61
2024/04/01 09:53:25;;;;;;;25.20;6.77;;;18.60;99.90;;;;;;5050872;28;20429;-54
2024/04/01 09:55:56;;;;;;;19.93;6.07;;;18.70;99.90;;;;;;5052237;28;20947;-56
2024/04/01 09:58:53;;;;;;;14.30;6.87;;;18.50;99.90;;;;;;5052191;28;20875;-54
2024/04/01 10:01:50;;;;;;;17.53;4.73;;;18.80;99.90;;;;;;5053086;28;20412;-55
2024/04/01 10:04:34;;;;;;;16.53;5.93;;;18.80;99.90;;;;;;5051353;28;20814;-57
2024/04/01 10:07:39;;;;;;;18.87;8.03;;;18.90;99.90;;;;;;5050375;28;20787;-57
2024/04/01 10:10:41;;;;;;;13.03;6.07;;;19.20;99.90;;;;;;5049372;28;20431;-51
2024/04/01 10:13:26;;;;;;;16.13;4.50;;;19.50;99.90;;;;;;5049530;28;20941;-56
2024/04/01 10:16:17;;;;;;;19.50;5.40;;;19.90;99.40;;;;;;5046138;28;20518;-55
2024/04/01 10:19:07;;;;;;;11.97;4.40;;;20.00;97.90;;;;;;5049295;28;20443;-55
2024/04/01 10:21:35;;;;;;;14.10;4.80;;;20.20;96.90;;;;;;5049220;28;20418;-56
2024/04/01 10:24:38;;;;;;;13.03;4.57;;;20.30;95.60;;;;;;5050142;28;20469;-62
2024/04/01 10:27:41;;;;;;;16.70;4.60;;;20.30;95.10;;;;;;5034274;28;20428;-52
2024/04/01 10:30:28;;;;;;;7.97;3.73;;;20.20;94.70;;;;;;5052434;28;20467;-54
2024/04/01 10:33:07;;;;;;;14.70;4.50;;;20.60;93.90;;;;;;5052530;28;20426;-51
2024/04/01 10:35:45;;;;;;;9.30;3.37;;;20.80;93.00;;;;;;5051425;28;20503;-51
2024/04/01 10:38:29;;;;;;;14.13;3.13;;;20.80;90.50;;;;;;5052246;28;21054;-54
2024/04/01 10:41:06;;;;;;;9.73;3.47;;;20.90;91.10;;;;;;5052277;28;20423;-54
2024/04/01 10:43:43;;;;;;;10.83;3.27;;;21.00;90.60;;;;;;5051572;28;20427;-56
2024/04/01 10:46:31;;;;;;;15.77;3.50;;;21.20;89.50;;;;;;5051448;28;20444;-56
2024/04/01 10:49:28;;;;;;;12.80;3.67;;;21.20;87.00;;;;;;5051880;28;20524;-56
2024/04/01 10:52:30;;;;;;;8.93;3.83;;;21.30;85.50;;;;;;5047453;28;20919;-54
2024/04/01 10:55:01;;;;;;;12.27;3.00;;;21.10;85.10;;;;;;5048476;28;20482;-51
2024/04/01 10:57:58;;;;;;;17.03;3.60;;;21.30;86.60;;;;;;5045853;28;20553;-55
2024/04/01 11:00:44;;;;;;;11.53;3.80;;;21.30;84.30;;;;;;5052119;28;20435;-51
2024/04/01 11:03:26;;;;;;;11.40;3.43;;;21.30;84.10;;;;;;5051741;28;20975;-52
2024/04/01 11:06:04;;;;;;;7.90;3.23;;;21.20;84.40;;;;;;5049295;28;20440;-56
2024/04/01 11:09:05;;;;;;;9.47;4.17;;;21.20;85.30;;;;;;5044453;28;20562;-51
2024/04/01 11:11:36;;;;;;;19.47;4.20;;;21.00;86.30;;;;;;5050609;28;21046;-54
2024/04/01 11:14:03;;;;;;;9.33;3.03;;;21.00;87.40;;;;;;5048598;28;20416;-57
2024/04/01 11:16:31;;;;;;;15.17;3.27;;;21.10;87.50;;;;;;5050457;28;20429;-53
2024/04/01 11:19:21;;;;;;;12.33;4.20;;;21.20;87.30;;;;;;5051285;28;20465;-56
2024/04/01 11:22:01;;;;;;;9.50;3.50;;;21.20;88.20;;;;;;5047084;28;20784;-56
2024/04/01 11:24:30;;;;;;;11.67;3.60;;;21.40;87.50;;;;;;5047151;28;20415;-57
2024/04/01 11:27:14;;;;;;;15.97;3.90;;;21.60;87.10;;;;;;5051672;28;20960;-52
2024/04/01 11:29:58;;;;;;;11.03;4.20;;;21.90;88.10;;;;;;5046077;28;20546;-52
2024/04/01 11:32:28;;;;;;;16.27;5.17;;;22.00;85.30;;;;;;5043509;28;20405;-52
2024/04/01 11:35:23;;;;;;;8.83;3.30;;;22.10;84.80;;;;;;5051395;28;20419;-54
2024/04/01 11:38:12;;;;;;;11.03;3.53;;;22.20;86.80;;;;;;5051688;28;20438;-48
2024/04/01 11:40:38;;;;;;;11.80;5.60;;;22.10;84.60;;;;;;5038063;28;20421;-56
2024/04/01 11:43:10;;;;;;;12.57;3.77;;;22.30;85.00;;;;;;5051349;28;20421;-55
2024/04/01 11:45:43;;;;;;;12.40;3.00;;;22.40;84.90;;;;;;5051491;28;20425;-54
2024/04/01 11:48:12;;;;;;;15.20;3.03;;;22.40;81.90;;;;;;5051127;28;20976;-55
2024/04/01 11:50:48;;;;;;;11.20;3.20;;;22.10;80.20;;;;;;5050730;28;20898;-58
2024/04/01 11:53:13;;;;;;;9.87;3.13;;;22.10;76.10;;;;;;5049319;28;20563;-55
2024/04/01 11:55:58;;;;;;;8.50;3.40;;;21.90;76.90;;;;;;5050947;28;20503;-57
2024/04/01 11:58:24;;;;;;;6.23;2.77;;;22.40;77.10;;;;;;5050378;28;20213;-60
2024/04/01 12:00:54;;;;;;;7.30;2.33;;;22.30;73.30;;;;;;5050883;28;20430;-57
2024/04/01 12:03:21;;;;;;;8.13;3.13;;;22.50;72.60;;;;;;5050418;28;20426;-54
2024/04/01 12:05:53;;;;;;;12.07;3.10;;;22.40;72.60;;;;;;5050715;28;20422;-51
2024/04/01 12:08:30;;;;;;;9.33;2.43;;;22.60;73.00;;;;;;5050244;28;20499;-55
2024/04/01 12:10:58;;;;;;;11.20;3.10;;;22.40;72.70;;;;;;5050891;28;20413;-50
2024/04/01 12:13:26;;;;;;;8.27;2.77;;;22.20;73.60;;;;;;5050654;28;20980;-55
2024/04/01 12:15:55;;;;;;;9.93;2.77;;;22.20;73.10;;;;;;5051064;28;20497;-54
2024/04/01 12:18:21;;;;;;;8.40;2.80;;;22.00;73.20;;;;;;5050179;28;20444;-55
2024/04/01 12:20:56;;;;;;;10.27;3.70;;;22.00;74.20;;;;;;5050907;28;20931;-55
2024/04/01 12:23:24;;;;;;;9.17;2.60;;;21.80;75.40;;;;;;5050944;28;20423;-54
2024/04/01 12:25:50;;;;;;;5.80;4.13;;;21.70;75.40;;;;;;5051232;28;20440;-52
2024/04/01 12:28:18;;;;;;;11.57;2.67;;;21.90;77.10;;;;;;5050662;28;20475;-57
2024/04/01 12:30:51;;;;;;;6.77;2.70;;;22.10;75.70;;;;;;5050675;28;20943;-52
2024/04/01 12:33:17;;;;;;;12.53;4.00;;;22.10;75.90;;;;;;5033259;28;20417;-53
2024/04/01 12:35:43;;;;;;;7.47;3.10;;;21.70;76.00;;;;;;5050395;28;20989;-53
2024/04/01 12:38:13;;;;;;;6.80;3.20;;;21.80;78.50;;;;;;5049320;28;20201;-55
2024/04/01 12:40:46;;;;;;;9.70;3.33;;;21.80;76.40;;;;;;5050425;28;20529;-54